Time;durP1;ratioP1;P1;durP2;ratioP2;P2;SDS_P1;SDS_P2;PMS_P1;PMS_P2;Temp;Humidity;BMP_temperature;BMP_pressure;BME280_temperature;BME280_humidity;BME280_pressure;Samples;Min_cycle;Max_cycle;Signal;HPM_P1;HPM_P2
2023/07/18 00:03:17;;;;;;;10.57;3.17;;;;;;;12.36;100.00;101970.97;10439247;28;20096;-68
2023/07/18 00:08:17;;;;;;;8.50;3.75;;;;;;;12.42;100.00;101981.06;10457173;28;20057;-68
2023/07/18 00:13:18;;;;;;;7.63;3.72;;;;;;;12.36;100.00;101982.88;10437692;28;20033;-68
2023/07/18 00:18:21;;;;;;;14.38;3.13;;;;;;;12.24;100.00;101965.47;10420712;28;20032;-67
2023/07/18 00:23:21;;;;;;;6.65;2.92;;;;;;;12.28;100.00;101964.75;10436628;28;20037;-68
2023/07/18 00:28:23;;;;;;;9.25;3.72;;;;;;;12.23;100.00;101961.84;10455822;28;20408;-67
2023/07/18 00:33:23;;;;;;;9.48;3.65;;;;;;;12.19;100.00;101966.16;10438353;28;20120;-67
2023/07/18 00:38:24;;;;;;;11.35;3.65;;;;;;;12.17;100.00;101968.31;10404477;28;20033;-68
2023/07/18 00:43:25;;;;;;;12.20;4.22;;;;;;;12.13;100.00;101969.88;10455586;28;20044;-68
2023/07/18 00:48:27;;;;;;;10.20;3.50;;;;;;;12.13;100.00;101972.63;10421464;28;20040;-67
2023/07/18 00:53:27;;;;;;;10.05;4.30;;;;;;;12.08;100.00;101965.06;10435682;28;20060;-68
2023/07/18 00:58:28;;;;;;;7.45;3.50;;;;;;;12.11;100.00;101972.03;10398857;28;20057;-68
2023/07/18 01:03:29;;;;;;;11.43;3.42;;;;;;;12.07;100.00;101966.16;10414071;28;20037;-67
2023/07/18 01:08:29;;;;;;;9.05;2.95;;;;;;;12.02;100.00;101962.44;10395420;28;20041;-67
2023/07/18 01:13:30;;;;;;;12.90;3.63;;;;;;;11.93;100.00;101956.41;10405919;28;20033;-67
2023/07/18 01:18:30;;;;;;;10.20;3.75;;;;;;;11.80;100.00;101940.88;10436336;28;20029;-67
2023/07/18 01:23:31;;;;;;;12.90;4.07;;;;;;;11.84;100.00;101958.63;10436335;28;20057;-67
2023/07/18 01:28:31;;;;;;;8.25;3.50;;;;;;;11.81;100.00;101948.06;10453318;28;20463;-67
2023/07/18 01:33:32;;;;;;;9.35;3.45;;;;;;;11.76;100.00;101950.72;10453469;28;20060;-67
2023/07/18 01:38:34;;;;;;;11.52;4.03;;;;;;;11.75;100.00;101953.69;10403467;28;20032;-68
2023/07/18 01:43:35;;;;;;;7.43;3.58;;;;;;;11.75;100.00;101965.56;10404939;28;20422;-68
2023/07/18 01:48:36;;;;;;;11.73;4.25;;;;;;;11.71;100.00;101953.31;10393588;28;20045;-67
2023/07/18 01:53:37;;;;;;;10.50;4.30;;;;;;;11.78;100.00;101953.22;10401061;28;20052;-67
2023/07/18 01:58:37;;;;;;;11.68;4.65;;;;;;;11.80;100.00;101940.88;10434701;28;20040;-67
2023/07/18 02:03:37;;;;;;;13.43;3.80;;;;;;;11.81;100.00;101937.03;10412564;28;20034;-67
2023/07/18 02:08:38;;;;;;;10.15;5.00;;;;;;;11.83;100.00;101934.06;10377890;28;20033;-67
2023/07/18 02:13:38;;;;;;;11.77;4.63;;;;;;;11.82;100.00;101930.44;10401090;28;20037;-67
2023/07/18 02:18:39;;;;;;;17.38;5.07;;;;;;;11.77;100.00;101923.97;10452086;28;20036;-67
2023/07/18 02:23:40;;;;;;;13.38;5.00;;;;;;;11.66;100.00;101901.63;10418401;28;20052;-67
2023/07/18 02:28:40;;;;;;;13.40;4.15;;;;;;;11.75;100.00;101915.91;10376641;28;20065;-67
2023/07/18 02:33:41;;;;;;;11.10;3.92;;;;;;;11.86;100.00;101922.53;10394170;28;20045;-67
2023/07/18 02:38:41;;;;;;;12.18;4.28;;;;;;;11.87;100.00;101925.06;10376940;28;20325;-67
2023/07/18 02:43:42;;;;;;;11.40;4.65;;;;;;;11.97;100.00;101929.16;10393207;28;20038;-67
2023/07/18 02:48:42;;;;;;;10.20;4.55;;;;;;;11.84;100.00;101916.41;10399139;28;20068;-68
2023/07/18 02:53:43;;;;;;;6.88;3.78;;;;;;;11.83;100.00;101926.59;10399858;28;20048;-68
2023/07/18 02:58:43;;;;;;;13.15;4.72;;;;;;;11.88;100.00;101932.28;10384959;28;20061;-68
2023/07/18 03:03:44;;;;;;;14.40;4.07;;;;;;;11.90;100.00;101927.34;10383992;28;20042;-67
2023/07/18 03:08:44;;;;;;;11.68;4.45;;;;;;;11.88;100.00;101921.22;10399636;28;20041;-67
2023/07/18 03:13:45;;;;;;;10.23;4.10;;;;;;;11.86;100.00;101937.16;10400145;28;20033;-67
2023/07/18 03:18:45;;;;;;;10.15;3.70;;;;;;;11.84;100.00;101924.69;10400687;28;20049;-67
2023/07/18 03:23:46;;;;;;;9.90;4.43;;;;;;;11.85;100.00;101924.44;10383483;28;20029;-67
2023/07/18 03:28:46;;;;;;;12.40;4.57;;;;;;;11.87;100.00;101919.53;10382932;28;20049;-67
2023/07/18 03:33:47;;;;;;;8.75;3.67;;;;;;;11.84;100.00;101930.19;10383794;28;20041;-67
2023/07/18 03:38:47;;;;;;;9.77;5.20;;;;;;;11.83;100.00;101934.06;10398723;28;20041;-67
2023/07/18 03:43:48;;;;;;;14.32;4.57;;;;;;;11.85;100.00;101929.13;10414948;28;20044;-67
2023/07/18 03:48:50;;;;;;;13.48;6.05;;;;;;;11.86;100.00;101928.88;10426000;28;20408;-68
2023/07/18 03:53:51;;;;;;;12.95;4.45;;;;;;;11.91;100.00;101937.34;10444474;28;20607;-68
2023/07/18 03:58:52;;;;;;;14.35;6.57;;;;;;;11.95;100.00;101931.31;10397988;28;20049;-67
2023/07/18 04:03:52;;;;;;;17.95;6.05;;;;;;;11.99;100.00;101932.53;10414385;28;20038;-67
2023/07/18 04:08:54;;;;;;;15.35;5.53;;;;;;;11.99;100.00;101933.38;10423989;28;20048;-66
2023/07/18 04:13:54;;;;;;;12.60;4.55;;;;;;;12.00;100.00;101935.06;10438370;28;20222;-67
2023/07/18 04:18:54;;;;;;;13.95;5.15;;;;;;;11.49;100.00;101846.31;10456424;28;20037;-67
2023/07/18 04:23:55;;;;;;;14.73;5.45;;;;;;;12.04;100.00;101936.25;10456274;28;20044;-67
2023/07/18 04:28:55;;;;;;;12.55;5.20;;;;;;;12.10;100.00;101940.00;10412655;28;20045;-66
2023/07/18 04:33:56;;;;;;;10.25;4.88;;;;;;;12.17;100.00;101945.41;10396861;28;20489;-68
2023/07/18 04:38:56;;;;;;;13.20;4.47;;;;;;;12.24;100.00;101935.09;10396544;28;20041;-67
2023/07/18 04:43:57;;;;;;;15.60;4.93;;;;;;;12.29;100.00;101930.50;10395370;28;20086;-68
2023/07/18 04:48:58;;;;;;;9.20;4.90;;;;;;;12.40;100.00;101928.84;10412103;28;20099;-67
2023/07/18 04:53:58;;;;;;;13.57;5.75;;;;;;;12.58;100.00;101935.31;10453588;28;20055;-68
2023/07/18 04:58:59;;;;;;;17.08;7.65;;;;;;;12.68;100.00;101938.31;10380775;28;21073;-67
2023/07/18 05:03:59;;;;;;;18.00;7.05;;;;;;;12.68;100.00;101917.03;10402799;28;20080;-67
2023/07/18 05:09:00;;;;;;;15.90;7.40;;;;;;;12.84;100.00;101933.97;10395042;28;20025;-67
2023/07/18 05:14:00;;;;;;;16.27;7.47;;;;;;;12.88;100.00;101937.91;10404933;28;20389;-67
2023/07/18 05:19:01;;;;;;;15.50;7.28;;;;;;;12.91;100.00;101946.53;10453893;28;20095;-68
2023/07/18 05:24:01;;;;;;;20.25;7.72;;;;;;;13.00;100.00;101938.72;10454127;28;20026;-67
2023/07/18 05:29:02;;;;;;;12.57;5.70;;;;;;;13.08;100.00;101938.34;10435437;28;20040;-68
2023/07/18 05:34:03;;;;;;;12.68;6.22;;;;;;;13.26;100.00;101940.06;10453420;28;20052;-67
2023/07/18 05:39:03;;;;;;;12.05;6.28;;;;;;;13.39;100.00;101941.72;10435214;28;20104;-68
2023/07/18 05:44:04;;;;;;;13.32;4.70;;;;;;;13.53;100.00;101943.09;10434588;28;20075;-67
2023/07/18 05:49:05;;;;;;;11.98;5.60;;;;;;;13.62;100.00;101942.69;10431143;28;20048;-67
2023/07/18 05:54:05;;;;;;;13.15;6.53;;;;;;;13.93;100.00;101936.63;10410295;28;20040;-67
2023/07/18 05:59:06;;;;;;;17.65;5.93;;;;;;;14.34;100.00;101944.75;10378673;28;20491;-67
2023/07/18 06:04:07;;;;;;;14.55;5.75;;;;;;;14.71;100.00;101947.81;10429605;28;20033;-68
2023/07/18 06:09:07;;;;;;;10.90;5.00;;;;;;;15.08;100.00;101958.28;10399548;28;20041;-68
2023/07/18 06:14:08;;;;;;;17.10;5.97;;;;;;;15.14;100.00;101943.38;10411578;28;20034;-68
2023/07/18 06:19:08;;;;;;;12.02;5.75;;;;;;;15.27;100.00;101941.31;10389853;28;20037;-68
2023/07/18 06:24:09;;;;;;;11.85;5.10;;;;;;;15.33;100.00;101948.59;10460709;28;20032;-68
2023/07/18 06:29:10;;;;;;;11.60;5.32;;;;;;;15.55;100.00;101951.34;10411214;28;20083;-68
2023/07/18 06:34:11;;;;;;;15.20;4.72;;;;;;;15.46;100.00;101947.34;10429767;28;20037;-68
2023/07/18 06:39:11;;;;;;;13.02;4.38;;;;;;;15.40;100.00;101965.03;10447001;28;20045;-68
2023/07/18 06:44:14;;;;;;;13.65;4.45;;;;;;;15.57;100.00;101964.97;10406407;28;20046;-68
2023/07/18 06:49:15;;;;;;;12.98;5.80;;;;;;;15.58;100.00;101961.06;10438481;28;20048;-68
2023/07/18 06:54:15;;;;;;;15.27;4.88;;;;;;;15.76;100.00;101952.41;10425078;28;20044;-67
2023/07/18 06:59:16;;;;;;;12.70;5.82;;;;;;;16.32;100.00;101955.66;10407831;28;20067;-67
2023/07/18 07:04:17;;;;;;;14.23;5.63;;;;;;;16.68;100.00;101966.16;10439734;28;20033;-67
2023/07/18 07:09:17;;;;;;;12.15;5.60;;;;;;;17.01;100.00;101956.66;10422256;28;20550;-69
2023/07/18 07:14:18;;;;;;;11.75;3.45;;;;;;;17.24;100.00;101957.28;10453139;28;20033;-68
2023/07/18 07:19:18;;;;;;;12.10;3.97;;;;;;;17.51;100.00;101955.16;10438392;28;20036;-68
2023/07/18 07:24:18;;;;;;;18.98;3.97;;;;;;;17.82;100.00;101955.19;10407649;28;20037;-68
2023/07/18 07:29:19;;;;;;;11.00;3.90;;;;;;;18.18;100.00;101949.66;10457434;28;20041;-69
2023/07/18 07:34:19;;;;;;;14.07;4.70;;;;;;;18.58;100.00;101945.13;10436127;28;20060;-67
2023/07/18 07:39:20;;;;;;;15.35;4.43;;;;;;;19.08;100.00;101925.72;10455897;28;20026;-68
2023/07/18 07:44:20;;;;;;;14.65;4.10;;;;;;;19.01;100.00;101941.97;10456932;28;20033;-69
2023/07/18 07:49:21;;;;;;;12.25;3.80;;;;;;;18.91;100.00;101926.94;10455564;28;20045;-67
2023/07/18 07:54:21;;;;;;;13.88;3.58;;;;;;;19.11;100.00;101931.59;10456970;28;20086;-68
2023/07/18 07:59:22;;;;;;;12.93;3.70;;;;;;;19.50;100.00;101930.00;10398035;28;20034;-68
2023/07/18 08:04:22;;;;;;;9.00;3.90;;;;;;;19.68;100.00;101925.69;10396308;28;20042;-68
2023/07/18 08:09:23;;;;;;;14.43;3.78;;;;;;;19.91;100.00;101926.94;10446511;28;20071;-69
2023/07/18 08:14:23;;;;;;;13.88;4.00;;;;;;;20.01;100.00;101926.00;10405901;28;20043;-68
2023/07/18 08:19:24;;;;;;;9.80;3.00;;;;;;;20.32;100.00;101926.56;10456137;28;20037;-68
2023/07/18 08:24:24;;;;;;;9.15;3.30;;;;;;;20.12;100.00;101919.19;10453728;28;20033;-68
2023/07/18 08:29:31;;;;;;;11.73;3.85;;;;;;;20.16;100.00;101923.06;10433495;28;20416;-68
2023/07/18 08:34:31;;;;;;;12.50;3.53;;;;;;;20.31;100.00;101913.69;10451813;28;20124;-68
2023/07/18 08:39:32;;;;;;;9.60;2.88;;;;;;;20.54;100.00;101907.28;10418145;28;20048;-69
2023/07/18 08:44:34;;;;;;;10.65;2.28;;;;;;;20.39;100.00;101896.28;10435096;28;20029;-68
2023/07/18 08:49:35;;;;;;;9.82;3.17;;;;;;;20.14;100.00;101894.59;10410011;28;20076;-68
2023/07/18 08:54:36;;;;;;;7.47;3.13;;;;;;;20.38;100.00;101889.00;10433689;28;20041;-68
2023/07/18 08:59:39;;;;;;;8.27;2.17;;;;;;;20.70;100.00;101891.19;10435585;28;20839;-68
2023/07/18 09:04:39;;;;;;;8.55;2.33;;;;;;;20.70;100.00;101880.00;10454244;28;20045;-68
2023/07/18 09:09:46;;;;;;;6.35;2.00;;;;;;;20.83;100.00;101869.22;10436133;28;20033;-68
2023/07/18 09:14:47;;;;;;;5.57;2.58;;;;;;;21.19;100.00;101868.72;10417398;28;21288;-68
2023/07/18 09:19:48;;;;;;;12.68;3.17;;;;;;;21.34;100.00;101860.09;10450692;28;20041;-69
2023/07/18 09:24:48;;;;;;;11.45;2.40;;;;;;;21.36;100.00;101839.03;10418782;28;20048;-69
2023/07/18 09:29:49;;;;;;;6.13;1.83;;;;;;;21.33;100.00;101853.69;10419253;28;20043;-69
2023/07/18 09:34:58;;;;;;;5.43;1.65;;;;;;;21.36;100.00;101853.06;10435278;28;20485;-69
2023/07/18 09:39:58;;;;;;;7.97;1.98;;;;;;;21.55;100.00;101861.47;10419642;28;20044;-68
2023/07/18 09:44:59;;;;;;;9.65;2.10;;;;;;;21.83;100.00;101847.56;10417704;28;20029;-69
2023/07/18 09:50:01;;;;;;;8.18;1.70;;;;;;;22.22;100.00;101800.56;10419591;28;20037;-69
2023/07/18 09:55:04;;;;;;;6.50;1.98;;;;;;;23.27;100.00;101825.00;10419710;28;20041;-69
2023/07/18 10:00:05;;;;;;;8.40;1.80;;;;;;;23.02;100.00;101821.63;10398716;28;20136;-68
2023/07/18 10:05:09;;;;;;;5.80;2.13;;;;;;;23.01;100.00;101820.00;10394983;28;20144;-69
2023/07/18 10:10:10;;;;;;;6.32;1.60;;;;;;;23.24;100.00;101825.66;10377867;28;20101;-69
2023/07/18 10:15:11;;;;;;;8.40;1.88;;;;;;;23.32;100.00;101810.84;10422087;28;20051;-70
2023/07/18 10:20:19;;;;;;;10.18;2.20;;;;;;;22.95;100.00;101810.00;10453781;28;20075;-70
2023/07/18 10:25:20;;;;;;;5.45;1.58;;;;;;;22.66;100.00;101797.16;10453810;28;20101;-70
2023/07/18 10:30:21;;;;;;;5.32;1.40;;;;;;;22.89;100.00;101800.84;10451958;28;20084;-70
2023/07/18 10:35:26;;;;;;;6.18;1.95;;;;;;;23.71;100.00;101792.41;10415619;28;20036;-70
2023/07/18 10:40:35;;;;;;;3.88;1.52;;;;;;;24.46;100.00;101762.47;10452040;28;20413;-70
2023/07/18 10:45:40;;;;;;;6.32;1.48;;;;;;;24.92;100.00;101763.06;10433610;28;20040;-70
2023/07/18 10:50:44;;;;;;;6.38;1.73;;;;;;;24.29;100.00;101765.22;10417980;28;20053;-70
2023/07/18 10:55:48;;;;;;;3.17;1.27;;;;;;;24.60;100.00;101753.09;10395046;28;20061;-70
2023/07/18 11:00:49;;;;;;;6.28;1.25;;;;;;;25.07;100.00;101753.28;10392658;28;20049;-70
2023/07/18 11:05:50;;;;;;;2.60;1.30;;;;;;;24.42;100.00;101684.66;10393213;28;20056;-68
2023/07/18 11:10:58;;;;;;;7.13;1.67;;;;;;;25.06;100.00;101724.31;10399204;28;20037;-68
2023/07/18 11:16:05;;;;;;;5.38;1.10;;;;;;;25.55;100.00;101724.91;10417173;28;20072;-68
2023/07/18 11:21:06;;;;;;;7.82;1.30;;;;;;;25.39;99.72;101715.34;10398702;28;20041;-69
2023/07/18 11:26:17;;;;;;;7.88;1.60;;;;;;;25.30;100.00;101701.25;10421950;28;20037;-69
2023/07/18 11:31:24;;;;;;;6.32;1.40;;;;;;;24.70;99.10;101666.34;10438580;28;20029;-69
2023/07/18 11:36:29;;;;;;;5.28;1.02;;;;;;;24.49;100.00;101690.63;10416347;28;20063;-69
2023/07/18 11:41:39;;;;;;;4.80;1.17;;;;;;;23.66;100.00;101695.00;10423282;28;20871;-69
2023/07/18 11:46:47;;;;;;;2.50;0.75;;;;;;;23.00;100.00;101689.09;10387081;28;20445;-69
2023/07/18 11:51:47;;;;;;;4.20;1.48;;;;;;;22.62;100.00;101703.50;10383501;28;20049;-69
2023/07/18 11:56:48;;;;;;;5.72;1.08;;;;;;;22.58;100.00;101677.22;10398084;28;20536;-69
2023/07/18 12:01:48;;;;;;;8.02;0.98;;;;;;;22.95;100.00;101659.19;10397903;28;20482;-69
2023/07/18 12:06:49;;;;;;;1.95;0.82;;;;;;;22.92;99.32;101658.97;10437168;28;20037;-69
2023/07/18 12:11:50;;;;;;;3.15;0.80;;;;;;;22.81;99.06;101666.00;10399336;28;20048;-70
2023/07/18 12:16:51;;;;;;;4.00;1.77;;;;;;;22.44;98.04;101663.22;10397387;28;20072;-69
2023/07/18 12:21:51;;;;;;;2.15;0.70;;;;;;;22.02;100.00;101687.69;10414163;28;20517;-69
2023/07/18 12:26:52;;;;;;;4.38;0.90;;;;;;;21.65;100.00;101694.31;10395430;28;20413;-69
2023/07/18 12:31:53;;;;;;;3.88;1.25;;;;;;;21.37;100.00;101697.03;10396033;28;20621;-69
2023/07/18 12:36:54;;;;;;;6.30;1.15;;;;;;;21.30;100.00;101696.59;10396769;28;20050;-69
2023/07/18 12:41:54;;;;;;;3.45;0.88;;;;;;;21.37;100.00;101699.81;10397680;28;20140;-69
2023/07/18 12:46:55;;;;;;;3.60;1.20;;;;;;;21.48;100.00;101684.53;10449643;28;20048;-69
2023/07/18 12:51:55;;;;;;;5.30;1.23;;;;;;;22.14;100.00;101678.75;10400760;28;20041;-69
2023/07/18 12:56:56;;;;;;;2.13;0.70;;;;;;;22.94;100.00;101667.91;10378598;28;20088;-69
2023/07/18 13:01:57;;;;;;;5.07;1.10;;;;;;;22.92;100.00;101664.59;10395896;28;20060;-70
2023/07/18 13:06:57;;;;;;;5.45;1.15;;;;;;;22.68;100.00;101678.97;10373676;28;20033;-70
2023/07/18 13:11:58;;;;;;;5.22;0.80;;;;;;;22.68;100.00;101662.94;10444101;28;20052;-69
2023/07/18 13:16:59;;;;;;;5.60;1.25;;;;;;;22.85;100.00;101686.69;10403348;28;20052;-69
2023/07/18 13:21:59;;;;;;;4.32;1.23;;;;;;;24.53;100.00;101671.94;10427059;28;20033;-69
2023/07/18 13:27:00;;;;;;;6.60;0.93;;;;;;;25.32;99.74;101669.91;10361396;28;20097;-69
2023/07/18 13:32:00;;;;;;;4.50;1.50;;;;;;;25.79;96.16;101669.91;10393693;28;20046;-68
2023/07/18 13:37:02;;;;;;;5.03;1.73;;;;;;;24.87;95.33;101659.88;10402759;28;20504;-68
2023/07/18 13:42:03;;;;;;;4.40;1.55;;;;;;;24.04;98.99;101659.91;10434273;28;20087;-69
2023/07/18 13:47:04;;;;;;;4.80;1.60;;;;;;;23.31;100.00;101682.75;10385535;28;20463;-68
2023/07/18 13:52:05;;;;;;;4.65;1.48;;;;;;;22.61;100.00;101693.41;10451646;28;20039;-68
2023/07/18 13:57:05;;;;;;;2.58;1.20;;;;;;;22.76;100.00;101683.81;10434238;28;20092;-68
2023/07/18 14:02:06;;;;;;;4.03;1.33;;;;;;;22.71;100.00;101681.13;10434315;28;20165;-69
2023/07/18 14:07:07;;;;;;;2.33;1.20;;;;;;;22.52;100.00;101676.50;10417540;28;20113;-68
2023/07/18 14:12:08;;;;;;;4.35;1.58;;;;;;;22.04;100.00;101660.16;10364612;28;20233;-69
2023/07/18 14:17:08;;;;;;;7.25;2.35;;;;;;;21.71;100.00;101665.88;10375961;28;20036;-68
2023/07/18 14:22:11;;;;;;;5.45;1.70;;;;;;;21.41;100.00;101675.66;10393907;28;20029;-68
2023/07/18 14:27:15;;;;;;;6.40;1.50;;;;;;;21.36;100.00;101676.59;10390414;28;20056;-68
2023/07/18 14:32:15;;;;;;;2.95;1.60;;;;;;;22.47;100.00;101653.34;10392934;28;20037;-68
2023/07/18 14:37:16;;;;;;;4.63;0.82;;;;;;;22.96;100.00;101649.63;10392630;28;20041;-69
2023/07/18 14:42:16;;;;;;;1.63;0.65;;;;;;;23.09;100.00;101636.69;10403332;28;20041;-68
2023/07/18 14:47:18;;;;;;;2.35;0.75;;;;;;;22.95;100.00;101633.09;10412658;28;20120;-69
2023/07/18 14:52:18;;;;;;;1.05;0.65;;;;;;;22.50;100.00;101630.28;10435531;28;20078;-68
2023/07/18 14:57:19;;;;;;;1.92;0.68;;;;;;;22.03;100.00;101640.84;10403584;28;20041;-68
2023/07/18 15:02:20;;;;;;;2.65;0.60;;;;;;;21.53;100.00;101641.56;10440295;28;20120;-68
2023/07/18 15:07:20;;;;;;;2.13;0.93;;;;;;;21.25;100.00;101646.25;10425018;28;20041;-68
2023/07/18 15:12:21;;;;;;;2.97;0.60;;;;;;;21.10;100.00;101614.59;10381841;28;20067;-68
2023/07/18 15:17:22;;;;;;;5.30;0.73;;;;;;;21.38;100.00;101628.66;10397882;28;20056;-69
2023/07/18 15:22:22;;;;;;;1.92;0.63;;;;;;;22.00;100.00;101614.25;10414924;28;20520;-69
2023/07/18 15:27:24;;;;;;;2.97;1.02;;;;;;;23.24;100.00;101595.28;10398648;28;20056;-68
2023/07/18 15:32:24;;;;;;;2.70;0.80;;;;;;;24.12;100.00;101536.19;10397308;28;20033;-68
2023/07/18 15:37:25;;;;;;;5.38;0.95;;;;;;;24.82;100.00;101560.63;10403576;28;20033;-69
2023/07/18 15:42:25;;;;;;;7.32;1.08;;;;;;;25.01;100.00;101549.78;10417877;28;20056;-68
2023/07/18 15:47:26;;;;;;;1.90;0.70;;;;;;;24.74;98.85;101536.97;10398281;28;20065;-69
2023/07/18 15:52:27;;;;;;;1.90;0.70;;;;;;;24.45;100.00;101554.53;10396332;28;20040;-69
2023/07/18 15:57:28;;;;;;;1.90;0.73;;;;;;;23.91;100.00;101544.41;10378771;28;20048;-69
2023/07/18 16:02:28;;;;;;;2.00;0.80;;;;;;;23.82;100.00;101554.84;10397803;28;20053;-68
2023/07/18 16:07:29;;;;;;;0.47;0.40;;;;;;;25.14;100.00;101551.59;10414600;28;20045;-67
2023/07/18 16:12:29;;;;;;;2.17;0.57;;;;;;;26.24;94.13;101525.41;10410977;28;20048;-68
2023/07/18 16:17:30;;;;;;;2.83;0.60;;;;;;;26.08;93.58;101533.66;10376350;28;20037;-68
2023/07/18 16:22:30;;;;;;;1.10;0.55;;;;;;;27.10;89.10;101513.53;10450171;28;20041;-68
2023/07/18 16:27:32;;;;;;;0.77;0.70;;;;;;;27.16;86.57;101515.81;10435128;28;20088;-68
2023/07/18 16:32:33;;;;;;;2.17;0.65;;;;;;;26.20;89.63;101512.34;10404470;28;20037;-69
2023/07/18 16:37:33;;;;;;;2.75;0.60;;;;;;;25.42;92.12;101524.97;10400347;28;20038;-69
2023/07/18 16:42:34;;;;;;;2.00;0.80;;;;;;;24.36;92.14;101524.41;10360634;28;20413;-69
2023/07/18 16:47:34;;;;;;;3.45;1.02;;;;;;;23.64;97.90;101536.25;10380165;28;20036;-68
2023/07/18 16:52:35;;;;;;;1.73;0.73;;;;;;;23.39;97.47;101538.66;10397021;28;20041;-68
2023/07/18 16:57:35;;;;;;;2.25;0.80;;;;;;;22.98;100.00;101534.97;10356472;28;20048;-68
2023/07/18 17:02:36;;;;;;;1.80;0.60;;;;;;;22.62;100.00;101534.28;10365224;28;20135;-67
2023/07/18 17:07:36;;;;;;;2.50;0.77;;;;;;;22.25;100.00;101537.16;10368213;28;20049;-68
2023/07/18 17:12:37;;;;;;;2.67;0.90;;;;;;;21.83;100.00;101539.22;10379095;28;20041;-68
2023/07/18 17:17:37;;;;;;;1.27;0.68;;;;;;;21.60;100.00;101548.69;10377501;28;20033;-68
2023/07/18 17:22:38;;;;;;;2.20;1.02;;;;;;;21.43;100.00;101546.53;10393236;28;20096;-69
2023/07/18 17:27:38;;;;;;;2.03;1.00;;;;;;;21.32;100.00;101527.09;10392873;28;20049;-66
2023/07/18 17:32:39;;;;;;;3.53;0.82;;;;;;;21.48;100.00;101541.66;10378454;28;20092;-68
2023/07/18 17:37:40;;;;;;;1.58;0.63;;;;;;;21.67;100.00;101529.50;10383181;28;20045;-68
2023/07/18 17:42:42;;;;;;;5.07;0.88;;;;;;;21.53;100.00;101523.91;10351587;28;20105;-68
2023/07/18 17:47:46;;;;;;;2.58;0.60;;;;;;;21.21;100.00;101520.06;10323620;28;20037;-68
2023/07/18 17:52:47;;;;;;;2.20;0.63;;;;;;;20.83;100.00;101511.81;10320369;28;20483;-68
2023/07/18 17:57:47;;;;;;;1.50;0.65;;;;;;;20.60;100.00;101541.63;10318661;28;20042;-68
2023/07/18 18:02:48;;;;;;;4.25;0.80;;;;;;;20.32;100.00;101538.69;10335702;28;20037;-68
2023/07/18 18:07:48;;;;;;;4.18;1.00;;;;;;;20.06;100.00;101538.25;10368800;28;20418;-69
2023/07/18 18:12:49;;;;;;;2.50;1.58;;;;;;;19.76;100.00;101528.34;10329642;28;20030;-68
2023/07/18 18:17:49;;;;;;;5.13;1.77;;;;;;;19.52;100.00;101534.78;10340708;28;20102;-68
2023/07/18 18:22:50;;;;;;;1.90;1.30;;;;;;;19.30;100.00;101526.13;10342544;28;20049;-68
2023/07/18 18:27:51;;;;;;;3.45;1.15;;;;;;;19.04;100.00;101526.41;10343509;28;20391;-68
2023/07/18 18:32:52;;;;;;;1.75;1.00;;;;;;;18.93;100.00;101524.84;10358840;28;20046;-68
2023/07/18 18:37:54;;;;;;;1.17;0.80;;;;;;;18.90;100.00;101533.81;10402434;28;20072;-68
2023/07/18 18:42:54;;;;;;;2.35;0.90;;;;;;;18.86;100.00;101522.41;10431550;28;20041;-68
2023/07/18 18:47:56;;;;;;;2.97;0.90;;;;;;;18.77;100.00;101524.16;10396483;28;20046;-69
2023/07/18 18:52:56;;;;;;;2.08;1.00;;;;;;;18.67;100.00;101519.50;10380244;28;20414;-68
2023/07/18 18:57:57;;;;;;;2.05;1.20;;;;;;;18.54;100.00;101522.94;10396975;28;20064;-68
2023/07/18 19:02:58;;;;;;;3.05;1.30;;;;;;;18.51;100.00;101529.13;10397569;28;20067;-69
2023/07/18 19:07:58;;;;;;;3.67;1.92;;;;;;;18.32;100.00;101515.91;10395518;28;20049;-68
2023/07/18 19:13:00;;;;;;;2.83;1.35;;;;;;;18.34;100.00;101515.63;10395197;28;20122;-68
2023/07/18 19:18:01;;;;;;;2.47;1.15;;;;;;;18.24;100.00;101515.69;10413798;28;20037;-68
2023/07/18 19:23:01;;;;;;;4.25;1.10;;;;;;;18.14;100.00;101509.06;10377742;28;20028;-69
2023/07/18 19:28:02;;;;;;;1.55;0.88;;;;;;;18.09;100.00;101503.53;10379763;28;20068;-68
2023/07/18 19:33:03;;;;;;;2.65;0.82;;;;;;;18.01;100.00;101494.97;10413150;28;20064;-68
2023/07/18 19:38:04;;;;;;;4.75;1.58;;;;;;;17.98;100.00;101501.09;10381122;28;20041;-68
2023/07/18 19:43:04;;;;;;;2.95;1.05;;;;;;;17.95;100.00;101508.09;10377907;28;20033;-69
2023/07/18 19:48:05;;;;;;;2.85;1.10;;;;;;;17.84;100.00;101512.91;10392708;28;20049;-68
2023/07/18 19:53:06;;;;;;;3.25;1.35;;;;;;;17.57;100.00;101492.97;10378534;28;20076;-70
2023/07/18 19:58:07;;;;;;;4.40;1.25;;;;;;;17.49;100.00;101509.16;10371618;28;20125;-68
2023/07/18 20:03:07;;;;;;;4.35;1.00;;;;;;;17.31;100.00;101507.00;10373941;28;20032;-69
2023/07/18 20:08:08;;;;;;;4.10;1.45;;;;;;;17.13;100.00;101491.75;10396690;28;20093;-68
2023/07/18 20:13:09;;;;;;;5.55;1.40;;;;;;;17.15;100.00;101501.47;10363201;28;20057;-68
2023/07/18 20:18:09;;;;;;;2.13;1.30;;;;;;;17.06;100.00;101497.63;10371048;28;20096;-69
2023/07/18 20:23:10;;;;;;;3.47;1.38;;;;;;;17.00;100.00;101484.84;10388231;28;20056;-69
2023/07/18 20:28:10;;;;;;;4.63;1.67;;;;;;;17.04;100.00;101479.56;10371782;28;20093;-69
2023/07/18 20:33:11;;;;;;;4.53;1.52;;;;;;;17.05;100.00;101489.56;10371742;28;20051;-68
2023/07/18 20:38:12;;;;;;;8.32;1.77;;;;;;;17.06;100.00;101492.06;10340113;28;20094;-68
2023/07/18 20:43:13;;;;;;;9.18;3.22;;;;;;;17.05;100.00;101501.53;10328682;28;20075;-69
2023/07/18 20:48:13;;;;;;;6.82;1.60;;;;;;;17.02;100.00;101496.53;10337550;28;20038;-69
2023/07/18 20:53:14;;;;;;;6.03;1.90;;;;;;;17.01;100.00;101489.31;10369683;28;20045;-69
2023/07/18 20:58:14;;;;;;;7.60;2.50;;;;;;;16.96;100.00;101497.66;10337729;28;20042;-68
2023/07/18 21:03:18;;;;;;;5.15;1.88;;;;;;;16.92;100.00;101507.69;10337860;28;20045;-69
2023/07/18 21:08:18;;;;;;;3.67;1.88;;;;;;;16.91;100.00;101504.06;10326148;28;20554;-68
2023/07/18 21:13:19;;;;;;;5.05;2.13;;;;;;;16.79;100.00;101491.56;10313436;28;20061;-67
2023/07/18 21:18:19;;;;;;;5.53;1.88;;;;;;;16.94;100.00;101500.72;10329939;28;20068;-68
2023/07/18 21:23:20;;;;;;;7.90;1.70;;;;;;;16.88;100.00;101475.97;10347655;28;20070;-68
2023/07/18 21:28:20;;;;;;;3.45;1.92;;;;;;;16.78;100.00;101456.50;10325876;28;21826;-68
2023/07/18 21:33:21;;;;;;;5.05;2.38;;;;;;;16.55;100.00;101444.88;10301358;28;20045;-68
2023/07/18 21:38:22;;;;;;;5.68;2.75;;;;;;;16.43;100.00;101456.28;10325950;28;20045;-68
2023/07/18 21:43:22;;;;;;;8.90;2.78;;;;;;;16.33;100.00;101456.31;10345349;28;20056;-66
2023/07/18 21:48:23;;;;;;;6.95;2.85;;;;;;;16.25;100.00;101460.47;10335746;28;20045;-67
2023/07/18 21:53:23;;;;;;;4.60;2.00;;;;;;;16.16;100.00;101469.66;10367358;28;20037;-68
2023/07/18 21:58:25;;;;;;;4.03;2.63;;;;;;;16.07;100.00;101458.25;10383946;28;20064;-67
2023/07/18 22:03:26;;;;;;;3.78;1.98;;;;;;;16.07;100.00;101467.41;10376078;28;20268;-67
2023/07/18 22:08:27;;;;;;;6.88;2.20;;;;;;;16.09;100.00;101459.66;10391675;28;20068;-68
2023/07/18 22:13:28;;;;;;;2.97;1.85;;;;;;;16.07;100.00;101458.25;10392213;28;20621;-68
2023/07/18 22:18:29;;;;;;;3.78;2.13;;;;;;;15.95;100.00;101466.84;10391817;28;20033;-68
2023/07/18 22:23:30;;;;;;;3.55;2.15;;;;;;;15.91;100.00;101452.69;10359676;28;20045;-68
2023/07/18 22:28:30;;;;;;;6.53;2.30;;;;;;;15.91;100.00;101449.06;10370003;28;20105;-67
2023/07/18 22:33:31;;;;;;;5.53;3.30;;;;;;;15.84;100.00;101449.34;10379110;28;20084;-68
2023/07/18 22:38:32;;;;;;;9.50;3.40;;;;;;;15.86;100.00;101452.69;10375864;28;20426;-68
2023/07/18 22:43:32;;;;;;;4.30;2.55;;;;;;;15.52;100.00;101386.56;10408117;28;20057;-67